sensor_id;sensor_type;location;lat;lon;timestamp;P1;durP1;ratioP1;P2;durP2;ratioP2
40951;SDS011;26682;51.660;19.338;2022-12-18T00:00:30;81.13;;;32.15;;
40951;SDS011;26682;51.660;19.338;2022-12-18T00:02:38;84.57;;;34.65;;
40951;SDS011;26682;51.660;19.338;2022-12-18T00:04:25;81.25;;;34.17;;
40951;SDS011;26682;51.660;19.338;2022-12-18T00:06:14;86.32;;;33.67;;
40951;SDS011;26682;51.660;19.338;2022-12-18T00:08:02;80.55;;;33.22;;
40951;SDS011;26682;51.660;19.338;2022-12-18T00:09:55;81.18;;;30.85;;
40951;SDS011;26682;51.660;19.338;2022-12-18T00:11:42;87.32;;;34.80;;
40951;SDS011;26682;51.660;19.338;2022-12-18T00:13:29;84.10;;;32.22;;
40951;SDS011;26682;51.660;19.338;2022-12-18T00:15:17;83.93;;;34.75;;
40951;SDS011;26682;51.660;19.338;2022-12-18T00:17:04;86.07;;;35.13;;
40951;SDS011;26682;51.660;19.338;2022-12-18T00:18:52;81.90;;;32.10;;
40951;SDS011;26682;51.660;19.338;2022-12-18T00:20:41;75.97;;;29.80;;
40951;SDS011;26682;51.660;19.338;2022-12-18T00:22:28;82.70;;;31.67;;
40951;SDS011;26682;51.660;19.338;2022-12-18T00:24:15;78.37;;;32.33;;
40951;SDS011;26682;51.660;19.338;2022-12-18T00:26:03;92.27;;;36.13;;
40951;SDS011;26682;51.660;19.338;2022-12-18T00:27:52;73.45;;;31.60;;
40951;SDS011;26682;51.660;19.338;2022-12-18T00:29:39;79.68;;;31.38;;
40951;SDS011;26682;51.660;19.338;2022-12-18T00:31:26;79.20;;;32.40;;
40951;SDS011;26682;51.660;19.338;2022-12-18T00:33:14;97.07;;;36.55;;
40951;SDS011;26682;51.660;19.338;2022-12-18T00:35:01;85.17;;;33.37;;
40951;SDS011;26682;51.660;19.338;2022-12-18T00:36:48;78.53;;;32.15;;
40951;SDS011;26682;51.660;19.338;2022-12-18T00:38:35;81.65;;;31.40;;
40951;SDS011;26682;51.660;19.338;2022-12-18T00:40:23;81.82;;;33.55;;
40951;SDS011;26682;51.660;19.338;2022-12-18T00:42:10;74.40;;;31.35;;
40951;SDS011;26682;51.660;19.338;2022-12-18T00:44:19;74.35;;;30.13;;
40951;SDS011;26682;51.660;19.338;2022-12-18T00:46:06;52.25;;;21.45;;
40951;SDS011;26682;51.660;19.338;2022-12-18T00:47:55;67.55;;;27.75;;
40951;SDS011;26682;51.660;19.338;2022-12-18T00:49:43;68.97;;;26.92;;
40951;SDS011;26682;51.660;19.338;2022-12-18T00:51:30;66.17;;;29.33;;
40951;SDS011;26682;51.660;19.338;2022-12-18T00:53:17;49.00;;;19.98;;
40951;SDS011;26682;51.660;19.338;2022-12-18T00:55:05;66.68;;;27.00;;
40951;SDS011;26682;51.660;19.338;2022-12-18T00:56:52;72.13;;;28.33;;
40951;SDS011;26682;51.660;19.338;2022-12-18T00:58:41;72.30;;;30.40;;
40951;SDS011;26682;51.660;19.338;2022-12-18T01:00:29;65.70;;;27.98;;
40951;SDS011;26682;51.660;19.338;2022-12-18T01:02:16;55.40;;;23.77;;
40951;SDS011;26682;51.660;19.338;2022-12-18T01:04:04;67.47;;;26.90;;
40951;SDS011;26682;51.660;19.338;2022-12-18T01:05:52;61.72;;;24.63;;
40951;SDS011;26682;51.660;19.338;2022-12-18T01:07:39;62.08;;;26.17;;
40951;SDS011;26682;51.660;19.338;2022-12-18T01:09:27;67.72;;;26.10;;
40951;SDS011;26682;51.660;19.338;2022-12-18T01:11:20;65.60;;;26.38;;
40951;SDS011;26682;51.660;19.338;2022-12-18T01:13:07;68.00;;;27.23;;
40951;SDS011;26682;51.660;19.338;2022-12-18T01:14:55;58.30;;;25.80;;
40951;SDS011;26682;51.660;19.338;2022-12-18T01:16:42;64.47;;;25.23;;
40951;SDS011;26682;51.660;19.338;2022-12-18T01:18:29;56.92;;;26.40;;
40951;SDS011;26682;51.660;19.338;2022-12-18T01:20:17;60.63;;;26.00;;
40951;SDS011;26682;51.660;19.338;2022-12-18T01:22:05;60.78;;;25.45;;
40951;SDS011;26682;51.660;19.338;2022-12-18T01:23:53;59.90;;;26.10;;
40951;SDS011;26682;51.660;19.338;2022-12-18T01:25:42;63.42;;;26.38;;
40951;SDS011;26682;51.660;19.338;2022-12-18T01:27:30;81.57;;;32.75;;
40951;SDS011;26682;51.660;19.338;2022-12-18T01:31:11;58.78;;;25.00;;
40951;SDS011;26682;51.660;19.338;2022-12-18T01:34:51;65.00;;;24.30;;
40951;SDS011;26682;51.660;19.338;2022-12-18T01:36:39;55.90;;;22.98;;
40951;SDS011;26682;51.660;19.338;2022-12-18T01:38:27;55.42;;;23.38;;
40951;SDS011;26682;51.660;19.338;2022-12-18T01:40:15;63.95;;;26.02;;
40951;SDS011;26682;51.660;19.338;2022-12-18T01:42:03;62.03;;;26.20;;
40951;SDS011;26682;51.660;19.338;2022-12-18T01:43:54;52.13;;;23.60;;
40951;SDS011;26682;51.660;19.338;2022-12-18T01:45:45;58.85;;;24.70;;
40951;SDS011;26682;51.660;19.338;2022-12-18T01:49:36;56.63;;;24.65;;
40951;SDS011;26682;51.660;19.338;2022-12-18T01:51:23;59.15;;;26.35;;
40951;SDS011;26682;51.660;19.338;2022-12-18T01:53:14;62.47;;;26.17;;
40951;SDS011;26682;51.660;19.338;2022-12-18T01:55:08;70.25;;;26.83;;
40951;SDS011;26682;51.660;19.338;2022-12-18T01:56:56;58.92;;;26.75;;
40951;SDS011;26682;51.660;19.338;2022-12-18T01:58:46;59.65;;;24.50;;
40951;SDS011;26682;51.660;19.338;2022-12-18T02:00:36;59.80;;;25.60;;
40951;SDS011;26682;51.660;19.338;2022-12-18T02:02:23;60.63;;;27.80;;
40951;SDS011;26682;51.660;19.338;2022-12-18T02:04:29;65.50;;;28.63;;
40951;SDS011;26682;51.660;19.338;2022-12-18T02:06:39;63.78;;;27.27;;
40951;SDS011;26682;51.660;19.338;2022-12-18T02:08:32;59.72;;;26.95;;
40951;SDS011;26682;51.660;19.338;2022-12-18T02:10:32;62.25;;;26.08;;
40951;SDS011;26682;51.660;19.338;2022-12-18T02:12:56;68.63;;;27.55;;
40951;SDS011;26682;51.660;19.338;2022-12-18T02:15:41;67.15;;;26.52;;
40951;SDS011;26682;51.660;19.338;2022-12-18T02:17:37;62.25;;;26.85;;
40951;SDS011;26682;51.660;19.338;2022-12-18T02:19:47;62.72;;;26.60;;
40951;SDS011;26682;51.660;19.338;2022-12-18T02:21:44;59.97;;;25.50;;
40951;SDS011;26682;51.660;19.338;2022-12-18T02:27:47;58.22;;;26.85;;
40951;SDS011;26682;51.660;19.338;2022-12-18T02:29:44;46.90;;;20.60;;
40951;SDS011;26682;51.660;19.338;2022-12-18T02:31:51;62.80;;;26.52;;
40951;SDS011;26682;51.660;19.338;2022-12-18T02:33:40;59.75;;;25.08;;
40951;SDS011;26682;51.660;19.338;2022-12-18T02:35:31;67.68;;;26.00;;
40951;SDS011;26682;51.660;19.338;2022-12-18T02:37:20;70.60;;;28.95;;
40951;SDS011;26682;51.660;19.338;2022-12-18T02:39:12;61.75;;;26.30;;
40951;SDS011;26682;51.660;19.338;2022-12-18T02:41:14;61.67;;;25.33;;
40951;SDS011;26682;51.660;19.338;2022-12-18T02:43:10;60.17;;;26.50;;
40951;SDS011;26682;51.660;19.338;2022-12-18T02:44:59;63.08;;;27.27;;
40951;SDS011;26682;51.660;19.338;2022-12-18T02:46:51;66.47;;;27.10;;
40951;SDS011;26682;51.660;19.338;2022-12-18T02:48:39;61.42;;;25.80;;
40951;SDS011;26682;51.660;19.338;2022-12-18T02:50:38;60.30;;;25.80;;
40951;SDS011;26682;51.660;19.338;2022-12-18T02:52:50;61.93;;;26.33;;
40951;SDS011;26682;51.660;19.338;2022-12-18T02:55:12;61.60;;;25.30;;
40951;SDS011;26682;51.660;19.338;2022-12-18T02:57:34;58.15;;;24.83;;
40951;SDS011;26682;51.660;19.338;2022-12-18T02:59:40;62.65;;;26.17;;
40951;SDS011;26682;51.660;19.338;2022-12-18T03:03:29;62.97;;;28.45;;
40951;SDS011;26682;51.660;19.338;2022-12-18T03:05:22;58.67;;;25.77;;
40951;SDS011;26682;51.660;19.338;2022-12-18T03:07:18;58.97;;;24.85;;
40951;SDS011;26682;51.660;19.338;2022-12-18T03:09:19;57.38;;;24.75;;
40951;SDS011;26682;51.660;19.338;2022-12-18T03:11:13;59.92;;;25.45;;
40951;SDS011;26682;51.660;19.338;2022-12-18T03:13:03;69.88;;;28.27;;
40951;SDS011;26682;51.660;19.338;2022-12-18T03:17:12;56.58;;;23.10;;
40951;SDS011;26682;51.660;19.338;2022-12-18T03:19:08;65.97;;;25.95;;
40951;SDS011;26682;51.660;19.338;2022-12-18T03:21:02;58.75;;;25.38;;
40951;SDS011;26682;51.660;19.338;2022-12-18T03:22:57;55.47;;;25.42;;
40951;SDS011;26682;51.660;19.338;2022-12-18T03:24:48;55.90;;;24.40;;
40951;SDS011;26682;51.660;19.338;2022-12-18T03:26:38;57.30;;;24.42;;
40951;SDS011;26682;51.660;19.338;2022-12-18T03:28:35;61.30;;;25.60;;
40951;SDS011;26682;51.660;19.338;2022-12-18T03:30:27;64.40;;;29.88;;
40951;SDS011;26682;51.660;19.338;2022-12-18T03:32:30;67.80;;;28.80;;
40951;SDS011;26682;51.660;19.338;2022-12-18T03:34:23;67.88;;;29.30;;
40951;SDS011;26682;51.660;19.338;2022-12-18T03:36:18;63.88;;;28.67;;
40951;SDS011;26682;51.660;19.338;2022-12-18T03:38:06;69.00;;;29.50;;
40951;SDS011;26682;51.660;19.338;2022-12-18T03:39:57;65.07;;;29.15;;
40951;SDS011;26682;51.660;19.338;2022-12-18T03:41:57;63.00;;;28.40;;
40951;SDS011;26682;51.660;19.338;2022-12-18T03:45:51;67.53;;;27.20;;
40951;SDS011;26682;51.660;19.338;2022-12-18T03:55:41;63.72;;;26.10;;
40951;SDS011;26682;51.660;19.338;2022-12-18T03:57:31;63.88;;;27.70;;
40951;SDS011;26682;51.660;19.338;2022-12-18T03:59:20;58.05;;;27.48;;
40951;SDS011;26682;51.660;19.338;2022-12-18T04:01:09;65.88;;;26.52;;
40951;SDS011;26682;51.660;19.338;2022-12-18T04:03:02;67.90;;;27.50;;
40951;SDS011;26682;51.660;19.338;2022-12-18T04:04:59;62.92;;;28.88;;
40951;SDS011;26682;51.660;19.338;2022-12-18T04:06:49;60.35;;;27.90;;
40951;SDS011;26682;51.660;19.338;2022-12-18T04:08:39;66.53;;;29.20;;
40951;SDS011;26682;51.660;19.338;2022-12-18T04:10:30;58.72;;;28.65;;
40951;SDS011;26682;51.660;19.338;2022-12-18T04:12:18;69.35;;;28.25;;
40951;SDS011;26682;51.660;19.338;2022-12-18T04:14:07;64.85;;;28.88;;
40951;SDS011;26682;51.660;19.338;2022-12-18T04:16:00;67.97;;;29.27;;
40951;SDS011;26682;51.660;19.338;2022-12-18T04:17:48;72.80;;;29.75;;
40951;SDS011;26682;51.660;19.338;2022-12-18T04:19:40;66.65;;;28.98;;
40951;SDS011;26682;51.660;19.338;2022-12-18T04:21:27;48.15;;;20.45;;
40951;SDS011;26682;51.660;19.338;2022-12-18T04:23:14;65.15;;;28.92;;
40951;SDS011;26682;51.660;19.338;2022-12-18T04:25:02;64.60;;;27.23;;
40951;SDS011;26682;51.660;19.338;2022-12-18T04:26:56;66.03;;;28.70;;
40951;SDS011;26682;51.660;19.338;2022-12-18T04:28:46;64.65;;;30.83;;
40951;SDS011;26682;51.660;19.338;2022-12-18T04:30:34;68.63;;;28.58;;
40951;SDS011;26682;51.660;19.338;2022-12-18T04:32:21;66.15;;;28.27;;
40951;SDS011;26682;51.660;19.338;2022-12-18T04:34:09;67.32;;;29.27;;
40951;SDS011;26682;51.660;19.338;2022-12-18T04:36:02;73.13;;;29.75;;
40951;SDS011;26682;51.660;19.338;2022-12-18T04:39:37;67.18;;;27.52;;
40951;SDS011;26682;51.660;19.338;2022-12-18T04:41:32;70.93;;;31.17;;
40951;SDS011;26682;51.660;19.338;2022-12-18T04:43:20;70.43;;;30.02;;
40951;SDS011;26682;51.660;19.338;2022-12-18T04:45:08;69.53;;;29.23;;
40951;SDS011;26682;51.660;19.338;2022-12-18T04:48:44;71.50;;;27.38;;
40951;SDS011;26682;51.660;19.338;2022-12-18T04:50:32;66.95;;;29.05;;
40951;SDS011;26682;51.660;19.338;2022-12-18T04:52:20;62.25;;;27.45;;
40951;SDS011;26682;51.660;19.338;2022-12-18T04:54:10;71.38;;;29.70;;
40951;SDS011;26682;51.660;19.338;2022-12-18T04:57:53;68.30;;;29.30;;
40951;SDS011;26682;51.660;19.338;2022-12-18T04:59:40;70.85;;;30.00;;
40951;SDS011;26682;51.660;19.338;2022-12-18T05:01:27;70.03;;;29.95;;
40951;SDS011;26682;51.660;19.338;2022-12-18T05:03:20;71.63;;;30.00;;
40951;SDS011;26682;51.660;19.338;2022-12-18T05:05:08;63.10;;;28.27;;
40951;SDS011;26682;51.660;19.338;2022-12-18T05:06:55;73.05;;;30.33;;
40951;SDS011;26682;51.660;19.338;2022-12-18T05:08:43;75.38;;;29.75;;
40951;SDS011;26682;51.660;19.338;2022-12-18T05:10:30;80.83;;;30.10;;
40951;SDS011;26682;51.660;19.338;2022-12-18T05:12:23;76.70;;;30.13;;
40951;SDS011;26682;51.660;19.338;2022-12-18T05:14:12;79.65;;;32.47;;
40951;SDS011;26682;51.660;19.338;2022-12-18T05:15:59;77.28;;;30.10;;
40951;SDS011;26682;51.660;19.338;2022-12-18T05:17:47;76.50;;;32.35;;
40951;SDS011;26682;51.660;19.338;2022-12-18T05:19:34;81.32;;;34.13;;
40951;SDS011;26682;51.660;19.338;2022-12-18T05:21:21;80.87;;;34.63;;
40951;SDS011;26682;51.660;19.338;2022-12-18T05:23:09;82.18;;;36.08;;
40951;SDS011;26682;51.660;19.338;2022-12-18T05:24:56;76.47;;;33.63;;
40951;SDS011;26682;51.660;19.338;2022-12-18T05:26:44;81.15;;;35.60;;
40951;SDS011;26682;51.660;19.338;2022-12-18T05:28:31;88.97;;;38.35;;
40951;SDS011;26682;51.660;19.338;2022-12-18T05:30:20;71.45;;;32.33;;
40951;SDS011;26682;51.660;19.338;2022-12-18T05:32:08;80.63;;;31.13;;
40951;SDS011;26682;51.660;19.338;2022-12-18T05:33:55;70.40;;;31.73;;
40951;SDS011;26682;51.660;19.338;2022-12-18T05:35:43;76.78;;;31.10;;
40951;SDS011;26682;51.660;19.338;2022-12-18T05:37:31;78.72;;;30.88;;
40951;SDS011;26682;51.660;19.338;2022-12-18T05:39:21;71.05;;;29.65;;
40951;SDS011;26682;51.660;19.338;2022-12-18T05:41:09;75.43;;;31.88;;
40951;SDS011;26682;51.660;19.338;2022-12-18T05:42:56;83.25;;;33.22;;
40951;SDS011;26682;51.660;19.338;2022-12-18T05:44:43;75.28;;;31.20;;
40951;SDS011;26682;51.660;19.338;2022-12-18T05:46:31;76.15;;;31.58;;
40951;SDS011;26682;51.660;19.338;2022-12-18T05:48:18;61.80;;;25.48;;
40951;SDS011;26682;51.660;19.338;2022-12-18T05:50:06;80.78;;;31.55;;
40951;SDS011;26682;51.660;19.338;2022-12-18T05:51:54;86.85;;;35.25;;
40951;SDS011;26682;51.660;19.338;2022-12-18T05:53:42;91.82;;;35.25;;
40951;SDS011;26682;51.660;19.338;2022-12-18T05:55:32;77.18;;;31.15;;
40951;SDS011;26682;51.660;19.338;2022-12-18T05:57:21;80.18;;;34.33;;
40951;SDS011;26682;51.660;19.338;2022-12-18T05:59:08;92.72;;;36.10;;
40951;SDS011;26682;51.660;19.338;2022-12-18T06:02:46;92.13;;;32.88;;
40951;SDS011;26682;51.660;19.338;2022-12-18T06:04:34;92.38;;;35.65;;
40951;SDS011;26682;51.660;19.338;2022-12-18T06:06:25;90.88;;;35.80;;
40951;SDS011;26682;51.660;19.338;2022-12-18T06:08:14;85.70;;;33.25;;
40951;SDS011;26682;51.660;19.338;2022-12-18T06:10:01;87.75;;;35.58;;
40951;SDS011;26682;51.660;19.338;2022-12-18T06:11:48;85.15;;;34.80;;
40951;SDS011;26682;51.660;19.338;2022-12-18T06:13:38;87.10;;;33.97;;
40951;SDS011;26682;51.660;19.338;2022-12-18T06:15:26;89.47;;;33.72;;
40951;SDS011;26682;51.660;19.338;2022-12-18T06:17:13;79.55;;;34.83;;
40951;SDS011;26682;51.660;19.338;2022-12-18T06:19:02;86.38;;;35.53;;
40951;SDS011;26682;51.660;19.338;2022-12-18T06:20:57;94.45;;;37.65;;
40951;SDS011;26682;51.660;19.338;2022-12-18T06:22:45;94.10;;;34.63;;
40951;SDS011;26682;51.660;19.338;2022-12-18T06:24:32;89.75;;;35.17;;
40951;SDS011;26682;51.660;19.338;2022-12-18T06:26:19;93.82;;;37.30;;
40951;SDS011;26682;51.660;19.338;2022-12-18T06:28:13;95.40;;;37.03;;
40951;SDS011;26682;51.660;19.338;2022-12-18T06:30:01;88.18;;;35.75;;
40951;SDS011;26682;51.660;19.338;2022-12-18T06:31:49;93.85;;;36.80;;
40951;SDS011;26682;51.660;19.338;2022-12-18T06:33:36;99.45;;;36.80;;
40951;SDS011;26682;51.660;19.338;2022-12-18T06:35:25;95.65;;;37.72;;
40951;SDS011;26682;51.660;19.338;2022-12-18T06:37:12;94.82;;;38.67;;
40951;SDS011;26682;51.660;19.338;2022-12-18T06:38:59;101.90;;;41.22;;
40951;SDS011;26682;51.660;19.338;2022-12-18T06:42:34;86.75;;;36.40;;
40951;SDS011;26682;51.660;19.338;2022-12-18T06:44:22;93.65;;;37.10;;
40951;SDS011;26682;51.660;19.338;2022-12-18T06:46:09;93.90;;;36.47;;
40951;SDS011;26682;51.660;19.338;2022-12-18T06:47:57;95.53;;;35.58;;
40951;SDS011;26682;51.660;19.338;2022-12-18T06:49:44;100.60;;;38.30;;
40951;SDS011;26682;51.660;19.338;2022-12-18T06:51:32;107.05;;;40.53;;
40951;SDS011;26682;51.660;19.338;2022-12-18T06:53:19;97.20;;;37.20;;
40951;SDS011;26682;51.660;19.338;2022-12-18T06:55:06;102.05;;;39.70;;
40951;SDS011;26682;51.660;19.338;2022-12-18T06:56:55;99.38;;;37.95;;
40951;SDS011;26682;51.660;19.338;2022-12-18T06:58:42;87.75;;;36.55;;
40951;SDS011;26682;51.660;19.338;2022-12-18T07:00:30;89.05;;;35.17;;
40951;SDS011;26682;51.660;19.338;2022-12-18T07:02:19;95.07;;;35.78;;
40951;SDS011;26682;51.660;19.338;2022-12-18T07:04:14;100.78;;;36.42;;
40951;SDS011;26682;51.660;19.338;2022-12-18T07:06:03;93.35;;;37.92;;
40951;SDS011;26682;51.660;19.338;2022-12-18T07:08:06;93.93;;;37.17;;
40951;SDS011;26682;51.660;19.338;2022-12-18T07:10:14;93.88;;;39.10;;
40951;SDS011;26682;51.660;19.338;2022-12-18T07:16:43;91.05;;;33.97;;
40951;SDS011;26682;51.660;19.338;2022-12-18T07:18:38;109.90;;;39.58;;
40951;SDS011;26682;51.660;19.338;2022-12-18T07:20:51;105.68;;;36.85;;
40951;SDS011;26682;51.660;19.338;2022-12-18T07:22:40;100.45;;;38.05;;
40951;SDS011;26682;51.660;19.338;2022-12-18T07:25:01;110.35;;;36.60;;
40951;SDS011;26682;51.660;19.338;2022-12-18T07:26:48;106.78;;;39.63;;
40951;SDS011;26682;51.660;19.338;2022-12-18T07:28:35;86.50;;;34.67;;
40951;SDS011;26682;51.660;19.338;2022-12-18T07:30:23;78.72;;;31.08;;
40951;SDS011;26682;51.660;19.338;2022-12-18T07:32:11;79.53;;;31.60;;
40951;SDS011;26682;51.660;19.338;2022-12-18T07:35:46;340.00;;;125.13;;
40951;SDS011;26682;51.660;19.338;2022-12-18T07:37:33;279.23;;;104.55;;
40951;SDS011;26682;51.660;19.338;2022-12-18T07:39:20;280.63;;;99.60;;
40951;SDS011;26682;51.660;19.338;2022-12-18T07:41:11;90.32;;;39.28;;
40951;SDS011;26682;51.660;19.338;2022-12-18T07:42:59;104.15;;;39.20;;
40951;SDS011;26682;51.660;19.338;2022-12-18T07:44:46;90.68;;;35.10;;
40951;SDS011;26682;51.660;19.338;2022-12-18T07:46:34;93.22;;;32.95;;
40951;SDS011;26682;51.660;19.338;2022-12-18T07:48:26;109.82;;;39.78;;
40951;SDS011;26682;51.660;19.338;2022-12-18T07:50:22;91.93;;;33.20;;
40951;SDS011;26682;51.660;19.338;2022-12-18T07:52:20;81.03;;;31.52;;
40951;SDS011;26682;51.660;19.338;2022-12-18T07:54:20;81.85;;;32.58;;
40951;SDS011;26682;51.660;19.338;2022-12-18T07:56:20;88.65;;;34.25;;
40951;SDS011;26682;51.660;19.338;2022-12-18T07:59:00;100.53;;;39.05;;
40951;SDS011;26682;51.660;19.338;2022-12-18T08:03:32;146.35;;;55.70;;
40951;SDS011;26682;51.660;19.338;2022-12-18T08:05:25;110.53;;;46.58;;
40951;SDS011;26682;51.660;19.338;2022-12-18T08:07:30;73.25;;;30.95;;
40951;SDS011;26682;51.660;19.338;2022-12-18T08:09:17;58.92;;;28.10;;
40951;SDS011;26682;51.660;19.338;2022-12-18T08:11:05;69.68;;;29.38;;
40951;SDS011;26682;51.660;19.338;2022-12-18T08:12:52;79.47;;;31.83;;
40951;SDS011;26682;51.660;19.338;2022-12-18T08:14:39;78.20;;;33.25;;
40951;SDS011;26682;51.660;19.338;2022-12-18T08:16:27;70.53;;;30.57;;
40951;SDS011;26682;51.660;19.338;2022-12-18T08:18:14;63.08;;;26.65;;
40951;SDS011;26682;51.660;19.338;2022-12-18T08:20:01;71.90;;;29.13;;
40951;SDS011;26682;51.660;19.338;2022-12-18T08:21:49;67.88;;;27.88;;
40951;SDS011;26682;51.660;19.338;2022-12-18T08:23:38;74.25;;;29.67;;
40951;SDS011;26682;51.660;19.338;2022-12-18T08:25:29;70.72;;;30.08;;
40951;SDS011;26682;51.660;19.338;2022-12-18T08:27:16;104.13;;;41.80;;
40951;SDS011;26682;51.660;19.338;2022-12-18T08:29:15;95.07;;;36.17;;
40951;SDS011;26682;51.660;19.338;2022-12-18T08:31:07;93.57;;;32.78;;
40951;SDS011;26682;51.660;19.338;2022-12-18T08:32:55;90.10;;;35.75;;
40951;SDS011;26682;51.660;19.338;2022-12-18T08:34:42;91.22;;;37.25;;
40951;SDS011;26682;51.660;19.338;2022-12-18T08:36:29;126.07;;;49.30;;
40951;SDS011;26682;51.660;19.338;2022-12-18T08:38:17;99.38;;;39.78;;
40951;SDS011;26682;51.660;19.338;2022-12-18T08:40:04;76.53;;;30.40;;
40951;SDS011;26682;51.660;19.338;2022-12-18T08:41:52;87.82;;;36.28;;
40951;SDS011;26682;51.660;19.338;2022-12-18T08:43:58;99.57;;;40.83;;
40951;SDS011;26682;51.660;19.338;2022-12-18T08:46:04;119.72;;;52.58;;
40951;SDS011;26682;51.660;19.338;2022-12-18T08:47:51;103.43;;;44.47;;
40951;SDS011;26682;51.660;19.338;2022-12-18T08:49:38;98.38;;;40.65;;
40951;SDS011;26682;51.660;19.338;2022-12-18T08:51:27;75.43;;;32.47;;
40951;SDS011;26682;51.660;19.338;2022-12-18T08:53:14;70.47;;;27.98;;
40951;SDS011;26682;51.660;19.338;2022-12-18T08:55:01;77.28;;;30.45;;
40951;SDS011;26682;51.660;19.338;2022-12-18T08:56:49;71.60;;;29.80;;
40951;SDS011;26682;51.660;19.338;2022-12-18T08:58:37;76.35;;;30.73;;
40951;SDS011;26682;51.660;19.338;2022-12-18T09:00:24;77.07;;;29.45;;
40951;SDS011;26682;51.660;19.338;2022-12-18T09:02:11;52.22;;;21.33;;
40951;SDS011;26682;51.660;19.338;2022-12-18T09:03:59;68.53;;;27.23;;
40951;SDS011;26682;51.660;19.338;2022-12-18T09:05:46;71.78;;;28.27;;
40951;SDS011;26682;51.660;19.338;2022-12-18T09:07:34;88.85;;;36.15;;
40951;SDS011;26682;51.660;19.338;2022-12-18T09:11:13;68.18;;;29.63;;
40951;SDS011;26682;51.660;19.338;2022-12-18T09:13:02;70.32;;;31.48;;
40951;SDS011;26682;51.660;19.338;2022-12-18T09:14:49;83.43;;;35.85;;
40951;SDS011;26682;51.660;19.338;2022-12-18T09:16:37;79.80;;;31.15;;
40951;SDS011;26682;51.660;19.338;2022-12-18T09:18:24;93.15;;;35.30;;
40951;SDS011;26682;51.660;19.338;2022-12-18T09:22:00;68.95;;;28.65;;
40951;SDS011;26682;51.660;19.338;2022-12-18T09:23:50;81.35;;;31.38;;
40951;SDS011;26682;51.660;19.338;2022-12-18T09:25:39;81.30;;;36.10;;
40951;SDS011;26682;51.660;19.338;2022-12-18T09:27:26;85.35;;;38.08;;
40951;SDS011;26682;51.660;19.338;2022-12-18T09:29:14;86.53;;;35.88;;
40951;SDS011;26682;51.660;19.338;2022-12-18T09:31:05;86.15;;;35.08;;
40951;SDS011;26682;51.660;19.338;2022-12-18T09:32:58;80.88;;;35.60;;
40951;SDS011;26682;51.660;19.338;2022-12-18T09:36:33;97.10;;;37.95;;
40951;SDS011;26682;51.660;19.338;2022-12-18T09:38:21;94.18;;;40.58;;
40951;SDS011;26682;51.660;19.338;2022-12-18T09:40:13;83.13;;;36.90;;
40951;SDS011;26682;51.660;19.338;2022-12-18T09:42:06;72.78;;;30.15;;
40951;SDS011;26682;51.660;19.338;2022-12-18T09:46:01;78.72;;;32.22;;
40951;SDS011;26682;51.660;19.338;2022-12-18T09:47:53;77.85;;;34.45;;
40951;SDS011;26682;51.660;19.338;2022-12-18T09:49:43;99.28;;;39.25;;
40951;SDS011;26682;51.660;19.338;2022-12-18T09:51:47;110.32;;;50.83;;
40951;SDS011;26682;51.660;19.338;2022-12-18T09:53:39;86.70;;;39.88;;
40951;SDS011;26682;51.660;19.338;2022-12-18T09:55:36;80.93;;;34.88;;
40951;SDS011;26682;51.660;19.338;2022-12-18T09:57:28;74.68;;;37.10;;
40951;SDS011;26682;51.660;19.338;2022-12-18T09:59:26;82.72;;;37.30;;
40951;SDS011;26682;51.660;19.338;2022-12-18T10:01:26;78.88;;;31.50;;
40951;SDS011;26682;51.660;19.338;2022-12-18T10:03:28;73.60;;;30.02;;
40951;SDS011;26682;51.660;19.338;2022-12-18T10:05:17;77.88;;;32.30;;
40951;SDS011;26682;51.660;19.338;2022-12-18T10:07:47;78.60;;;32.72;;
40951;SDS011;26682;51.660;19.338;2022-12-18T10:10:01;77.88;;;30.63;;
40951;SDS011;26682;51.660;19.338;2022-12-18T10:12:03;79.68;;;32.10;;
40951;SDS011;26682;51.660;19.338;2022-12-18T10:14:46;100.20;;;46.72;;
40951;SDS011;26682;51.660;19.338;2022-12-18T10:16:49;85.18;;;35.70;;
40951;SDS011;26682;51.660;19.338;2022-12-18T10:18:43;83.95;;;39.45;;
40951;SDS011;26682;51.660;19.338;2022-12-18T10:20:38;92.05;;;43.05;;
40951;SDS011;26682;51.660;19.338;2022-12-18T10:22:33;93.53;;;41.88;;
40951;SDS011;26682;51.660;19.338;2022-12-18T10:24:42;87.80;;;42.67;;
40951;SDS011;26682;51.660;19.338;2022-12-18T10:27:26;85.93;;;37.03;;
40951;SDS011;26682;51.660;19.338;2022-12-18T10:29:21;69.85;;;30.85;;
40951;SDS011;26682;51.660;19.338;2022-12-18T10:31:21;98.78;;;44.92;;
40951;SDS011;26682;51.660;19.338;2022-12-18T10:33:21;103.90;;;46.70;;
40951;SDS011;26682;51.660;19.338;2022-12-18T10:35:22;85.93;;;39.25;;
40951;SDS011;26682;51.660;19.338;2022-12-18T10:37:15;80.85;;;38.58;;
40951;SDS011;26682;51.660;19.338;2022-12-18T10:39:23;75.97;;;31.38;;
40951;SDS011;26682;51.660;19.338;2022-12-18T10:43:11;74.78;;;32.30;;
40951;SDS011;26682;51.660;19.338;2022-12-18T10:45:02;78.25;;;30.70;;
40951;SDS011;26682;51.660;19.338;2022-12-18T10:47:05;71.82;;;29.33;;
40951;SDS011;26682;51.660;19.338;2022-12-18T10:50:00;83.28;;;35.75;;
40951;SDS011;26682;51.660;19.338;2022-12-18T10:54:29;92.18;;;40.15;;
40951;SDS011;26682;51.660;19.338;2022-12-18T10:56:32;142.43;;;55.45;;
40951;SDS011;26682;51.660;19.338;2022-12-18T11:00:20;97.10;;;42.20;;
40951;SDS011;26682;51.660;19.338;2022-12-18T11:02:27;147.80;;;56.15;;
40951;SDS011;26682;51.660;19.338;2022-12-18T11:04:29;102.43;;;41.88;;
40951;SDS011;26682;51.660;19.338;2022-12-18T11:06:23;90.45;;;38.88;;
40951;SDS011;26682;51.660;19.338;2022-12-18T11:08:19;70.38;;;29.27;;
40951;SDS011;26682;51.660;19.338;2022-12-18T11:10:15;69.70;;;30.35;;
40951;SDS011;26682;51.660;19.338;2022-12-18T11:12:17;69.40;;;27.00;;
40951;SDS011;26682;51.660;19.338;2022-12-18T11:14:18;58.45;;;23.77;;
40951;SDS011;26682;51.660;19.338;2022-12-18T11:16:33;73.75;;;32.85;;
40951;SDS011;26682;51.660;19.338;2022-12-18T11:19:21;70.60;;;31.73;;
40951;SDS011;26682;51.660;19.338;2022-12-18T11:21:11;68.28;;;29.40;;
40951;SDS011;26682;51.660;19.338;2022-12-18T11:23:02;69.95;;;31.40;;
40951;SDS011;26682;51.660;19.338;2022-12-18T11:24:58;85.35;;;36.40;;
40951;SDS011;26682;51.660;19.338;2022-12-18T11:27:16;95.82;;;42.22;;
40951;SDS011;26682;51.660;19.338;2022-12-18T11:29:10;84.05;;;37.88;;
40951;SDS011;26682;51.660;19.338;2022-12-18T11:35:28;67.18;;;28.83;;
40951;SDS011;26682;51.660;19.338;2022-12-18T11:37:27;91.28;;;39.92;;
40951;SDS011;26682;51.660;19.338;2022-12-18T11:41:46;68.50;;;29.75;;
40951;SDS011;26682;51.660;19.338;2022-12-18T11:44:01;104.40;;;44.45;;
40951;SDS011;26682;51.660;19.338;2022-12-18T11:46:11;86.95;;;29.38;;
40951;SDS011;26682;51.660;19.338;2022-12-18T11:48:25;61.17;;;24.98;;
40951;SDS011;26682;51.660;19.338;2022-12-18T11:50:26;64.30;;;27.52;;
40951;SDS011;26682;51.660;19.338;2022-12-18T11:52:35;106.30;;;45.70;;
40951;SDS011;26682;51.660;19.338;2022-12-18T11:54:26;66.03;;;27.63;;